sensor_id;sensor_type;location;lat;lon;timestamp;pressure;altitude;pressure_sealevel;temperature;humidity
10720;BME280;5411;58.386;15.560;2023-02-18T00:01:49;97476.75;;;4.01;100.00
10720;BME280;5411;58.386;15.560;2023-02-18T00:04:18;97506.78;;;3.94;100.00
10720;BME280;5411;58.386;15.560;2023-02-18T00:06:46;97509.22;;;3.84;100.00
10720;BME280;5411;58.386;15.560;2023-02-18T00:09:15;97520.25;;;3.81;100.00
10720;BME280;5411;58.386;15.560;2023-02-18T00:11:43;97543.09;;;3.76;100.00
10720;BME280;5411;58.386;15.560;2023-02-18T00:14:13;97544.84;;;3.70;100.00
10720;BME280;5411;58.386;15.560;2023-02-18T00:16:43;97569.31;;;3.66;100.00
10720;BME280;5411;58.386;15.560;2023-02-18T00:19:15;97564.69;;;3.61;100.00
10720;BME280;5411;58.386;15.560;2023-02-18T00:21:43;97577.00;;;3.55;100.00
10720;BME280;5411;58.386;15.560;2023-02-18T00:24:13;97578.91;;;3.48;100.00
10720;BME280;5411;58.386;15.560;2023-02-18T00:26:42;97596.50;;;3.43;100.00
10720;BME280;5411;58.386;15.560;2023-02-18T00:29:11;97618.16;;;3.33;100.00
10720;BME280;5411;58.386;15.560;2023-02-18T00:31:40;97623.56;;;3.27;100.00
10720;BME280;5411;58.386;15.560;2023-02-18T00:34:10;97624.22;;;3.22;100.00
10720;BME280;5411;58.386;15.560;2023-02-18T00:36:48;97624.91;;;3.17;100.00
10720;BME280;5411;58.386;15.560;2023-02-18T00:39:17;97659.69;;;3.14;100.00
10720;BME280;5411;58.386;15.560;2023-02-18T00:41:46;97655.84;;;3.10;100.00
10720;BME280;5411;58.386;15.560;2023-02-18T00:44:14;97668.47;;;3.08;100.00
10720;BME280;5411;58.386;15.560;2023-02-18T00:46:43;97670.19;;;3.03;100.00
10720;BME280;5411;58.386;15.560;2023-02-18T00:49:14;97692.91;;;3.04;100.00
10720;BME280;5411;58.386;15.560;2023-02-18T00:51:45;97698.25;;;2.97;100.00
10720;BME280;5411;58.386;15.560;2023-02-18T00:54:13;97715.34;;;2.95;100.00
10720;BME280;5411;58.386;15.560;2023-02-18T00:56:41;97738.56;;;2.93;100.00
10720;BME280;5411;58.386;15.560;2023-02-18T00:59:10;97739.19;;;2.88;100.00
10720;BME280;5411;58.386;15.560;2023-02-18T01:01:38;97740.44;;;2.85;100.00
10720;BME280;5411;58.386;15.560;2023-02-18T01:04:07;97757.94;;;2.80;100.00
10720;BME280;5411;58.386;15.560;2023-02-18T01:06:35;97768.16;;;2.76;100.00
10720;BME280;5411;58.386;15.560;2023-02-18T01:09:05;97778.53;;;2.71;100.00
10720;BME280;5411;58.386;15.560;2023-02-18T01:11:34;97780.78;;;2.68;100.00
10720;BME280;5411;58.386;15.560;2023-02-18T01:14:07;97794.44;;;2.65;100.00
10720;BME280;5411;58.386;15.560;2023-02-18T01:16:36;97796.69;;;2.61;100.00
10720;BME280;5411;58.386;15.560;2023-02-18T01:19:05;97806.06;;;2.57;100.00
10720;BME280;5411;58.386;15.560;2023-02-18T01:21:33;97808.28;;;2.60;100.00
10720;BME280;5411;58.386;15.560;2023-02-18T01:24:02;97808.28;;;2.60;100.00
10720;BME280;5411;58.386;15.560;2023-02-18T01:26:32;97810.72;;;2.62;100.00
10720;BME280;5411;58.386;15.560;2023-02-18T01:29:01;97819.22;;;2.64;100.00
10720;BME280;5411;58.386;15.560;2023-02-18T01:31:29;97824.84;;;2.67;100.00
10720;BME280;5411;58.386;15.560;2023-02-18T01:34:00;97824.81;;;2.74;100.00
10720;BME280;5411;58.386;15.560;2023-02-18T01:36:29;97832.09;;;2.78;100.00
10720;BME280;5411;58.386;15.560;2023-02-18T01:38:58;97841.78;;;2.84;100.00
10720;BME280;5411;58.386;15.560;2023-02-18T01:41:27;97858.38;;;2.92;100.00
10720;BME280;5411;58.386;15.560;2023-02-18T01:44:14;97841.47;;;2.99;100.00
10720;BME280;5411;58.386;15.560;2023-02-18T01:46:43;97865.41;;;3.04;100.00
10720;BME280;5411;58.386;15.560;2023-02-18T01:49:15;97865.09;;;3.12;100.00
10720;BME280;5411;58.386;15.560;2023-02-18T01:51:50;97881.94;;;3.18;100.00
10720;BME280;5411;58.386;15.560;2023-02-18T01:54:26;97861.97;;;3.22;100.00
10720;BME280;5411;58.386;15.560;2023-02-18T01:56:59;97885.25;;;3.32;100.00
10720;BME280;5411;58.386;15.560;2023-02-18T01:59:33;97895.75;;;3.38;100.00
10720;BME280;5411;58.386;15.560;2023-02-18T02:02:10;97877.84;;;3.40;100.00
10720;BME280;5411;58.386;15.560;2023-02-18T02:04:40;97894.44;;;3.47;100.00
10720;BME280;5411;58.386;15.560;2023-02-18T02:07:09;97906.19;;;3.51;100.00
10720;BME280;5411;58.386;15.560;2023-02-18T02:09:38;97909.00;;;3.56;100.00
10720;BME280;5411;58.386;15.560;2023-02-18T02:12:29;97919.13;;;3.59;100.00
10720;BME280;5411;58.386;15.560;2023-02-18T02:15:25;97938.00;;;3.63;100.00
10720;BME280;5411;58.386;15.560;2023-02-18T02:18:07;97938.38;;;3.67;100.00
10720;BME280;5411;58.386;15.560;2023-02-18T02:26:59;97952.94;;;3.76;100.00
10720;BME280;5411;58.386;15.560;2023-02-18T02:35:37;97991.78;;;3.75;100.00
10720;BME280;5411;58.386;15.560;2023-02-18T02:38:18;97997.44;;;3.79;100.00
10720;BME280;5411;58.386;15.560;2023-02-18T02:40:53;97993.78;;;3.80;100.00
10720;BME280;5411;58.386;15.560;2023-02-18T02:43:27;98018.19;;;3.82;100.00
10720;BME280;5411;58.386;15.560;2023-02-18T02:46:02;98024.88;;;3.84;100.00
10720;BME280;5411;58.386;15.560;2023-02-18T02:48:39;98039.72;;;3.85;100.00
10720;BME280;5411;58.386;15.560;2023-02-18T02:51:14;98018.31;;;3.87;100.00
10720;BME280;5411;58.386;15.560;2023-02-18T02:53:45;98032.94;;;3.89;100.00
10720;BME280;5411;58.386;15.560;2023-02-18T02:56:14;98040.44;;;3.92;100.00
10720;BME280;5411;58.386;15.560;2023-02-18T02:58:44;98058.75;;;3.94;100.00
10720;BME280;5411;58.386;15.560;2023-02-18T03:01:32;98055.91;;;3.96;100.00
10720;BME280;5411;58.386;15.560;2023-02-18T03:04:21;98066.09;;;3.92;100.00
10720;BME280;5411;58.386;15.560;2023-02-18T03:07:05;98072.56;;;3.96;100.00
10720;BME280;5411;58.386;15.560;2023-02-18T03:09:46;98071.59;;;3.90;100.00
10720;BME280;5411;58.386;15.560;2023-02-18T03:12:26;98085.59;;;3.98;100.00
10720;BME280;5411;58.386;15.560;2023-02-18T03:15:00;98083.38;;;3.94;100.00
10720;BME280;5411;58.386;15.560;2023-02-18T03:17:34;98109.41;;;3.98;100.00
10720;BME280;5411;58.386;15.560;2023-02-18T03:20:08;98091.50;;;3.93;100.00
10720;BME280;5411;58.386;15.560;2023-02-18T03:22:45;98109.59;;;3.96;100.00
10720;BME280;5411;58.386;15.560;2023-02-18T03:25:15;98112.84;;;3.98;100.00
10720;BME280;5411;58.386;15.560;2023-02-18T03:27:48;98126.88;;;3.99;100.00
10720;BME280;5411;58.386;15.560;2023-02-18T03:30:21;98117.53;;;3.96;100.00
10720;BME280;5411;58.386;15.560;2023-02-18T03:32:54;98120.78;;;3.98;100.00
10720;BME280;5411;58.386;15.560;2023-02-18T03:35:25;98146.22;;;3.99;100.00
10720;BME280;5411;58.386;15.560;2023-02-18T03:38:00;98154.38;;;3.98;100.00
10720;BME280;5411;58.386;15.560;2023-02-18T03:40:34;98156.19;;;3.97;100.00
10720;BME280;5411;58.386;15.560;2023-02-18T03:43:03;98149.28;;;3.96;100.00
10720;BME280;5411;58.386;15.560;2023-02-18T03:45:31;98160.69;;;3.97;100.00
10720;BME280;5411;58.386;15.560;2023-02-18T03:48:00;98172.88;;;3.98;100.00
10720;BME280;5411;58.386;15.560;2023-02-18T03:50:28;98171.84;;;3.99;100.00
10720;BME280;5411;58.386;15.560;2023-02-18T03:52:58;98182.66;;;3.97;100.00
10720;BME280;5411;58.386;15.560;2023-02-18T03:55:26;98214.38;;;3.97;100.00
10720;BME280;5411;58.386;15.560;2023-02-18T03:57:56;98189.78;;;3.97;100.00
10720;BME280;5411;58.386;15.560;2023-02-18T04:00:25;98177.34;;;3.97;100.00
10720;BME280;5411;58.386;15.560;2023-02-18T04:02:53;98188.53;;;3.99;100.00
10720;BME280;5411;58.386;15.560;2023-02-18T04:05:22;98209.69;;;3.99;100.00
10720;BME280;5411;58.386;15.560;2023-02-18T04:07:50;98207.06;;;3.99;100.00
10720;BME280;5411;58.386;15.560;2023-02-18T04:10:20;98221.88;;;4.00;100.00
10720;BME280;5411;58.386;15.560;2023-02-18T04:12:49;98223.72;;;4.00;100.00
10720;BME280;5411;58.386;15.560;2023-02-18T04:15:17;98223.94;;;3.98;100.00
10720;BME280;5411;58.386;15.560;2023-02-18T04:17:46;98254.69;;;3.92;100.00
10720;BME280;5411;58.386;15.560;2023-02-18T04:20:14;98250.00;;;3.94;100.00
10720;BME280;5411;58.386;15.560;2023-02-18T04:22:43;98276.06;;;3.91;100.00
10720;BME280;5411;58.386;15.560;2023-02-18T04:25:11;98248.81;;;3.90;100.00
10720;BME280;5411;58.386;15.560;2023-02-18T04:27:41;98273.03;;;3.87;100.00
10720;BME280;5411;58.386;15.560;2023-02-18T04:30:10;98271.63;;;3.85;100.00
10720;BME280;5411;58.386;15.560;2023-02-18T04:32:39;98270.63;;;3.86;100.00
10720;BME280;5411;58.386;15.560;2023-02-18T04:35:08;98263.91;;;3.83;100.00
10720;BME280;5411;58.386;15.560;2023-02-18T04:37:36;98289.97;;;3.80;100.00
10720;BME280;5411;58.386;15.560;2023-02-18T04:40:06;98301.34;;;3.80;100.00
10720;BME280;5411;58.386;15.560;2023-02-18T04:42:35;98307.06;;;3.77;100.00
10720;BME280;5411;58.386;15.560;2023-02-18T04:45:06;98300.56;;;3.73;100.00
10720;BME280;5411;58.386;15.560;2023-02-18T04:47:35;98333.34;;;3.72;100.00
10720;BME280;5411;58.386;15.560;2023-02-18T04:50:04;98316.06;;;3.70;100.00
10720;BME280;5411;58.386;15.560;2023-02-18T04:52:32;98317.06;;;3.69;100.00
10720;BME280;5411;58.386;15.560;2023-02-18T04:55:01;98327.03;;;3.67;100.00
10720;BME280;5411;58.386;15.560;2023-02-18T04:57:29;98341.47;;;3.64;100.00
10720;BME280;5411;58.386;15.560;2023-02-18T04:59:57;98352.25;;;3.63;100.00
10720;BME280;5411;58.386;15.560;2023-02-18T05:02:27;98356.94;;;3.61;100.00
10720;BME280;5411;58.386;15.560;2023-02-18T05:04:56;98336.03;;;3.59;100.00
10720;BME280;5411;58.386;15.560;2023-02-18T05:07:24;98345.19;;;3.56;100.00
10720;BME280;5411;58.386;15.560;2023-02-18T05:09:52;98360.84;;;3.58;100.00
10720;BME280;5411;58.386;15.560;2023-02-18T05:12:21;98377.09;;;3.55;99.91
10720;BME280;5411;58.386;15.560;2023-02-18T05:14:49;98361.44;;;3.53;99.99
10720;BME280;5411;58.386;15.560;2023-02-18T05:17:29;98363.47;;;3.51;99.41
10720;BME280;5411;58.386;15.560;2023-02-18T05:19:58;98396.03;;;3.45;99.07
10720;BME280;5411;58.386;15.560;2023-02-18T05:22:26;98392.78;;;3.43;99.27
10720;BME280;5411;58.386;15.560;2023-02-18T05:24:54;98389.31;;;3.43;99.68
10720;BME280;5411;58.386;15.560;2023-02-18T05:27:23;98392.38;;;3.40;98.85
10720;BME280;5411;58.386;15.560;2023-02-18T05:29:51;98390.13;;;3.37;99.03
10720;BME280;5411;58.386;15.560;2023-02-18T05:32:39;98404.56;;;3.34;98.19
10720;BME280;5411;58.386;15.560;2023-02-18T05:35:08;98418.00;;;3.33;97.87
10720;BME280;5411;58.386;15.560;2023-02-18T05:37:36;98424.09;;;3.27;98.33
10720;BME280;5411;58.386;15.560;2023-02-18T05:40:07;98422.28;;;3.27;97.81
10720;BME280;5411;58.386;15.560;2023-02-18T05:42:35;98430.41;;;3.26;96.96
10720;BME280;5411;58.386;15.560;2023-02-18T05:45:04;98433.44;;;3.22;96.20
10720;BME280;5411;58.386;15.560;2023-02-18T05:47:32;98427.97;;;3.24;95.75
10720;BME280;5411;58.386;15.560;2023-02-18T05:50:03;98448.69;;;3.20;95.16
10720;BME280;5411;58.386;15.560;2023-02-18T05:52:31;98459.03;;;3.22;94.81
10720;BME280;5411;58.386;15.560;2023-02-18T05:55:00;98482.22;;;3.20;95.26
10720;BME280;5411;58.386;15.560;2023-02-18T05:57:28;98480.00;;;3.17;94.49
10720;BME280;5411;58.386;15.560;2023-02-18T05:59:56;98474.09;;;3.15;94.21
10720;BME280;5411;58.386;15.560;2023-02-18T06:02:26;98472.88;;;3.17;94.84
10720;BME280;5411;58.386;15.560;2023-02-18T06:04:54;98481.00;;;3.16;94.80
10720;BME280;5411;58.386;15.560;2023-02-18T06:07:24;98489.94;;;3.15;95.46
10720;BME280;5411;58.386;15.560;2023-02-18T06:09:52;98499.91;;;3.13;95.58
10720;BME280;5411;58.386;15.560;2023-02-18T06:12:20;98499.09;;;3.12;96.07
10720;BME280;5411;58.386;15.560;2023-02-18T06:14:49;98496.63;;;3.11;96.50
10720;BME280;5411;58.386;15.560;2023-02-18T06:17:17;98510.03;;;3.09;96.63
10720;BME280;5411;58.386;15.560;2023-02-18T06:19:49;98518.16;;;3.08;96.27
10720;BME280;5411;58.386;15.560;2023-02-18T06:22:17;98537.66;;;3.07;96.08
10720;BME280;5411;58.386;15.560;2023-02-18T06:24:47;98535.03;;;3.07;95.83
10720;BME280;5411;58.386;15.560;2023-02-18T06:27:16;98532.63;;;3.05;95.40
10720;BME280;5411;58.386;15.560;2023-02-18T06:29:44;98534.44;;;3.05;96.24
10720;BME280;5411;58.386;15.560;2023-02-18T06:32:13;98531.38;;;3.01;95.65
10720;BME280;5411;58.386;15.560;2023-02-18T06:34:41;98538.88;;;2.98;95.61
10720;BME280;5411;58.386;15.560;2023-02-18T06:37:10;98542.34;;;2.98;95.85
10720;BME280;5411;58.386;15.560;2023-02-18T06:39:38;98538.88;;;2.98;95.44
10720;BME280;5411;58.386;15.560;2023-02-18T06:42:08;98541.09;;;2.94;95.65
10720;BME280;5411;58.386;15.560;2023-02-18T06:44:36;98539.69;;;2.98;94.99
10720;BME280;5411;58.386;15.560;2023-02-18T06:47:04;98551.06;;;2.99;94.46
10720;BME280;5411;58.386;15.560;2023-02-18T06:49:33;98551.88;;;2.99;93.76
10720;BME280;5411;58.386;15.560;2023-02-18T06:52:02;98562.06;;;3.02;93.78
10720;BME280;5411;58.386;15.560;2023-02-18T06:54:32;98551.31;;;3.04;93.04
10720;BME280;5411;58.386;15.560;2023-02-18T06:57:01;98563.69;;;3.03;92.48
10720;BME280;5411;58.386;15.560;2023-02-18T06:59:31;98557.97;;;3.06;93.03
10720;BME280;5411;58.386;15.560;2023-02-18T07:01:59;98552.69;;;3.06;91.95
10720;BME280;5411;58.386;15.560;2023-02-18T07:04:28;98558.41;;;3.10;92.09
10720;BME280;5411;58.386;15.560;2023-02-18T07:06:56;98557.19;;;3.12;91.87
10720;BME280;5411;58.386;15.560;2023-02-18T07:09:24;98556.00;;;3.15;91.72
10720;BME280;5411;58.386;15.560;2023-02-18T07:11:52;98564.13;;;3.20;91.03
10720;BME280;5411;58.386;15.560;2023-02-18T07:14:21;98569.00;;;3.23;90.34
10720;BME280;5411;58.386;15.560;2023-02-18T07:16:51;98564.53;;;3.23;90.35
10720;BME280;5411;58.386;15.560;2023-02-18T07:19:20;98563.91;;;3.21;89.60
10720;BME280;5411;58.386;15.560;2023-02-18T07:21:48;98581.22;;;3.24;89.96
10720;BME280;5411;58.386;15.560;2023-02-18T07:24:16;98565.16;;;3.26;89.35
10720;BME280;5411;58.386;15.560;2023-02-18T07:26:45;98579.19;;;3.26;88.58
10720;BME280;5411;58.386;15.560;2023-02-18T07:29:13;98562.13;;;3.29;88.16
10720;BME280;5411;58.386;15.560;2023-02-18T07:31:42;98579.59;;;3.30;88.26
10720;BME280;5411;58.386;15.560;2023-02-18T07:34:12;98594.44;;;3.31;88.11
10720;BME280;5411;58.386;15.560;2023-02-18T07:36:40;98585.91;;;3.35;87.55
10720;BME280;5411;58.386;15.560;2023-02-18T07:39:08;98579.41;;;3.38;87.30
10720;BME280;5411;58.386;15.560;2023-02-18T07:41:38;98583.69;;;3.39;87.15
10720;BME280;5411;58.386;15.560;2023-02-18T07:44:08;98590.81;;;3.45;86.43
10720;BME280;5411;58.386;15.560;2023-02-18T07:46:38;98595.47;;;3.49;85.15
10720;BME280;5411;58.386;15.560;2023-02-18T07:49:08;98595.91;;;3.53;85.74
10720;BME280;5411;58.386;15.560;2023-02-18T07:51:38;98611.38;;;3.56;84.59
10720;BME280;5411;58.386;15.560;2023-02-18T07:54:07;98617.88;;;3.60;84.16
10720;BME280;5411;58.386;15.560;2023-02-18T07:56:35;98615.63;;;3.64;84.17
10720;BME280;5411;58.386;15.560;2023-02-18T07:59:04;98630.91;;;3.68;84.13
10720;BME280;5411;58.386;15.560;2023-02-18T08:01:32;98631.53;;;3.70;83.83
10720;BME280;5411;58.386;15.560;2023-02-18T08:04:01;98614.03;;;3.76;83.08
10720;BME280;5411;58.386;15.560;2023-02-18T08:06:33;98636.19;;;3.75;82.51
10720;BME280;5411;58.386;15.560;2023-02-18T08:09:04;98640.69;;;3.81;82.13
10720;BME280;5411;58.386;15.560;2023-02-18T08:11:33;98635.63;;;3.86;82.10
10720;BME280;5411;58.386;15.560;2023-02-18T08:14:03;98638.66;;;3.89;82.18
10720;BME280;5411;58.386;15.560;2023-02-18T08:16:32;98634.78;;;3.92;82.29
10720;BME280;5411;58.386;15.560;2023-02-18T08:19:01;98641.31;;;3.96;80.57
10720;BME280;5411;58.386;15.560;2023-02-18T08:21:31;98648.63;;;4.01;80.27
10720;BME280;5411;58.386;15.560;2023-02-18T08:23:59;98643.94;;;4.03;80.68
10720;BME280;5411;58.386;15.560;2023-02-18T08:26:29;98631.13;;;4.06;80.76
10720;BME280;5411;58.386;15.560;2023-02-18T08:28:57;98649.06;;;4.11;79.68
10720;BME280;5411;58.386;15.560;2023-02-18T08:31:27;98653.72;;;4.15;78.79
10720;BME280;5411;58.386;15.560;2023-02-18T08:33:57;98657.59;;;4.19;78.30
10720;BME280;5411;58.386;15.560;2023-02-18T08:36:26;98658.81;;;4.23;79.24
10720;BME280;5411;58.386;15.560;2023-02-18T08:38:55;98668.97;;;4.26;78.07
10720;BME280;5411;58.386;15.560;2023-02-18T08:41:25;98661.66;;;4.28;78.85
10720;BME280;5411;58.386;15.560;2023-02-18T08:43:56;98672.84;;;4.30;78.51
10720;BME280;5411;58.386;15.560;2023-02-18T08:46:25;98662.69;;;4.34;77.98
10720;BME280;5411;58.386;15.560;2023-02-18T08:49:04;98660.44;;;4.38;77.22
10720;BME280;5411;58.386;15.560;2023-02-18T08:51:32;98667.75;;;4.42;77.02
10720;BME280;5411;58.386;15.560;2023-02-18T08:54:01;98668.38;;;4.44;77.00
10720;BME280;5411;58.386;15.560;2023-02-18T08:56:29;98669.59;;;4.48;76.25
10720;BME280;5411;58.386;15.560;2023-02-18T08:59:01;98669.56;;;4.55;76.40
10720;BME280;5411;58.386;15.560;2023-02-18T09:01:30;98685.25;;;4.56;76.59
10720;BME280;5411;58.386;15.560;2023-02-18T09:03:58;98677.94;;;4.58;75.25
10720;BME280;5411;58.386;15.560;2023-02-18T09:06:27;98680.97;;;4.62;75.15
10720;BME280;5411;58.386;15.560;2023-02-18T09:08:55;98687.72;;;4.64;75.52
10720;BME280;5411;58.386;15.560;2023-02-18T09:11:24;98685.44;;;4.68;74.82
10720;BME280;5411;58.386;15.560;2023-02-18T09:13:52;98684.63;;;4.74;75.11
10720;BME280;5411;58.386;15.560;2023-02-18T09:16:22;98703.38;;;4.79;74.66
10720;BME280;5411;58.386;15.560;2023-02-18T09:18:52;98706.81;;;4.80;73.98
10720;BME280;5411;58.386;15.560;2023-02-18T09:21:21;98703.16;;;4.87;74.19
10720;BME280;5411;58.386;15.560;2023-02-18T09:23:50;98713.94;;;4.92;73.20
10720;BME280;5411;58.386;15.560;2023-02-18T09:26:20;98707.59;;;5.00;74.33
10720;BME280;5411;58.386;15.560;2023-02-18T09:28:50;98711.47;;;5.04;72.39
10720;BME280;5411;58.386;15.560;2023-02-18T09:31:23;98712.88;;;5.07;72.91
10720;BME280;5411;58.386;15.560;2023-02-18T09:33:53;98714.91;;;5.11;73.49
10720;BME280;5411;58.386;15.560;2023-02-18T09:36:22;98706.94;;;5.11;72.84
10720;BME280;5411;58.386;15.560;2023-02-18T09:38:51;98719.19;;;5.12;72.88
10720;BME280;5411;58.386;15.560;2023-02-18T09:41:29;98710.63;;;5.17;73.38
10720;BME280;5411;58.386;15.560;2023-02-18T09:44:02;98720.41;;;5.16;72.15
10720;BME280;5411;58.386;15.560;2023-02-18T09:46:36;98715.47;;;5.26;71.31
10720;BME280;5411;58.386;15.560;2023-02-18T09:49:13;98715.88;;;5.30;71.06
10720;BME280;5411;58.386;15.560;2023-02-18T09:51:43;98729.50;;;5.33;71.16
10720;BME280;5411;58.386;15.560;2023-02-18T09:54:14;98721.53;;;5.40;71.45
10720;BME280;5411;58.386;15.560;2023-02-18T09:56:44;98726.22;;;5.45;70.53
10720;BME280;5411;58.386;15.560;2023-02-18T09:59:16;98723.94;;;5.48;69.91
10720;BME280;5411;58.386;15.560;2023-02-18T10:01:48;98718.63;;;5.48;69.38
10720;BME280;5411;58.386;15.560;2023-02-18T10:04:19;98732.91;;;5.47;70.18
10720;BME280;5411;58.386;15.560;2023-02-18T10:06:51;98722.91;;;5.49;68.66
10720;BME280;5411;58.386;15.560;2023-02-18T10:09:23;98731.47;;;5.51;69.17
10720;BME280;5411;58.386;15.560;2023-02-18T10:11:56;98717.19;;;5.52;68.90
10720;BME280;5411;58.386;15.560;2023-02-18T10:14:25;98743.31;;;5.55;68.71
10720;BME280;5411;58.386;15.560;2023-02-18T10:16:56;98724.31;;;5.58;68.78
10720;BME280;5411;58.386;15.560;2023-02-18T10:19:32;98730.81;;;5.62;67.92
10720;BME280;5411;58.386;15.560;2023-02-18T10:22:03;98728.34;;;5.67;68.97
10720;BME280;5411;58.386;15.560;2023-02-18T10:24:34;98721.00;;;5.69;67.95
10720;BME280;5411;58.386;15.560;2023-02-18T10:27:06;98720.59;;;5.72;67.51
10720;BME280;5411;58.386;15.560;2023-02-18T10:29:36;98731.78;;;5.74;67.43
10720;BME280;5411;58.386;15.560;2023-02-18T10:32:11;98728.09;;;5.76;66.51
10720;BME280;5411;58.386;15.560;2023-02-18T10:34:47;98725.63;;;5.81;67.03
10720;BME280;5411;58.386;15.560;2023-02-18T10:37:34;98733.38;;;5.82;67.19
10720;BME280;5411;58.386;15.560;2023-02-18T10:40:14;98730.31;;;5.85;67.95
10720;BME280;5411;58.386;15.560;2023-02-18T10:42:54;98735.22;;;5.82;66.09
10720;BME280;5411;58.386;15.560;2023-02-18T10:45:32;98731.13;;;5.86;67.11
10720;BME280;5411;58.386;15.560;2023-02-18T10:48:18;98739.66;;;5.88;65.78
10720;BME280;5411;58.386;15.560;2023-02-18T10:50:52;98759.69;;;5.90;65.70
10720;BME280;5411;58.386;15.560;2023-02-18T10:53:27;98733.97;;;5.91;66.24
10720;BME280;5411;58.386;15.560;2023-02-18T10:55:59;98739.28;;;5.91;66.56
10720;BME280;5411;58.386;15.560;2023-02-18T10:58:33;98738.03;;;5.93;65.28
10720;BME280;5411;58.386;15.560;2023-02-18T11:01:04;98738.00;;;6.00;64.97
10720;BME280;5411;58.386;15.560;2023-02-18T11:03:41;98735.56;;;5.98;65.36
10720;BME280;5411;58.386;15.560;2023-02-18T11:06:20;98737.78;;;6.01;65.58
10720;BME280;5411;58.386;15.560;2023-02-18T11:08:55;98725.53;;;6.00;66.02
10720;BME280;5411;58.386;15.560;2023-02-18T11:11:29;98748.97;;;6.10;65.62
10720;BME280;5411;58.386;15.560;2023-02-18T11:14:00;98738.16;;;6.12;65.54
10720;BME280;5411;58.386;15.560;2023-02-18T11:16:37;98745.06;;;6.13;64.49
10720;BME280;5411;58.386;15.560;2023-02-18T11:19:30;98747.09;;;6.17;64.25
10720;BME280;5411;58.386;15.560;2023-02-18T11:22:06;98758.31;;;6.19;64.91
10720;BME280;5411;58.386;15.560;2023-02-18T11:24:37;98761.97;;;6.25;64.70
10720;BME280;5411;58.386;15.560;2023-02-18T11:27:08;98743.94;;;6.27;65.09
10720;BME280;5411;58.386;15.560;2023-02-18T11:29:40;98752.72;;;6.27;63.70
10720;BME280;5411;58.386;15.560;2023-02-18T11:32:10;98760.69;;;6.27;63.76
10720;BME280;5411;58.386;15.560;2023-02-18T11:34:42;98756.59;;;6.31;64.93
10720;BME280;5411;58.386;15.560;2023-02-18T11:37:17;98758.44;;;6.31;63.94
10720;BME280;5411;58.386;15.560;2023-02-18T11:39:49;98764.56;;;6.31;63.61
10720;BME280;5411;58.386;15.560;2023-02-18T11:42:19;98761.06;;;6.37;64.83
10720;BME280;5411;58.386;15.560;2023-02-18T11:44:51;98760.25;;;6.37;64.03
10720;BME280;5411;58.386;15.560;2023-02-18T11:47:25;98759.22;;;6.38;65.16
10720;BME280;5411;58.386;15.560;2023-02-18T11:50:15;98748.72;;;6.43;64.92
10720;BME280;5411;58.386;15.560;2023-02-18T11:52:47;98760.78;;;6.46;64.93
10720;BME280;5411;58.386;15.560;2023-02-18T11:55:18;98765.47;;;6.50;64.37
10720;BME280;5411;58.386;15.560;2023-02-18T11:57:54;98763.81;;;6.49;64.11
10720;BME280;5411;58.386;15.560;2023-02-18T12:00:34;98783.44;;;6.48;63.19
10720;BME280;5411;58.386;15.560;2023-02-18T12:03:13;98769.94;;;6.50;64.49
10720;BME280;5411;58.386;15.560;2023-02-18T12:05:45;98778.75;;;6.50;63.02
10720;BME280;5411;58.386;15.560;2023-02-18T12:08:17;98793.66;;;6.51;64.41
10720;BME280;5411;58.386;15.560;2023-02-18T12:10:49;98787.94;;;6.48;62.36
10720;BME280;5411;58.386;15.560;2023-02-18T12:13:23;98799.41;;;6.41;61.80
10720;BME280;5411;58.386;15.560;2023-02-18T12:15:59;98798.59;;;6.41;63.10
10720;BME280;5411;58.386;15.560;2023-02-18T12:18:45;98825.38;;;6.39;62.89
10720;BME280;5411;58.386;15.560;2023-02-18T12:21:39;98827.66;;;6.36;61.68
10720;BME280;5411;58.386;15.560;2023-02-18T12:24:19;98806.63;;;6.34;62.64
10720;BME280;5411;58.386;15.560;2023-02-18T12:26:57;98806.84;;;6.33;63.55
10720;BME280;5411;58.386;15.560;2023-02-18T12:29:53;98807.06;;;6.31;62.57
10720;BME280;5411;58.386;15.560;2023-02-18T12:32:36;98815.00;;;6.31;63.39
10720;BME280;5411;58.386;15.560;2023-02-18T12:35:29;98815.00;;;6.31;63.54
10720;BME280;5411;58.386;15.560;2023-02-18T12:38:29;98816.81;;;6.37;64.42
10720;BME280;5411;58.386;15.560;2023-02-18T12:41:17;98814.81;;;6.33;63.81
10720;BME280;5411;58.386;15.560;2023-02-18T12:43:54;98820.94;;;6.33;63.15
10720;BME280;5411;58.386;15.560;2023-02-18T12:46:52;98825.22;;;6.34;63.22
10720;BME280;5411;58.386;15.560;2023-02-18T12:49:39;98823.38;;;6.35;62.76
10720;BME280;5411;58.386;15.560;2023-02-18T12:52:20;98818.06;;;6.35;62.90
10720;BME280;5411;58.386;15.560;2023-02-18T12:58:00;98834.59;;;6.37;63.20
10720;BME280;5411;58.386;15.560;2023-02-18T13:00:49;98831.94;;;6.37;62.96
10720;BME280;5411;58.386;15.560;2023-02-18T13:06:45;98831.94;;;6.37;62.99
10720;BME280;5411;58.386;15.560;2023-02-18T13:09:24;98834.41;;;6.38;63.29
10720;BME280;5411;58.386;15.560;2023-02-18T13:12:07;98838.91;;;6.38;64.54
10720;BME280;5411;58.386;15.560;2023-02-18T13:14:44;98839.09;;;6.36;63.37
10720;BME280;5411;58.386;15.560;2023-02-18T13:17:16;98844.84;;;6.33;64.07
10720;BME280;5411;58.386;15.560;2023-02-18T13:19:49;98848.31;;;6.34;63.88
10720;BME280;5411;58.386;15.560;2023-02-18T13:22:20;98845.44;;;6.35;63.91
10720;BME280;5411;58.386;15.560;2023-02-18T13:24:53;98866.03;;;6.40;63.28
10720;BME280;5411;58.386;15.560;2023-02-18T13:27:28;98856.66;;;6.37;64.33
10720;BME280;5411;58.386;15.560;2023-02-18T13:30:12;98853.81;;;6.39;63.68
10720;BME280;5411;58.386;15.560;2023-02-18T13:32:52;98869.28;;;6.42;63.20
10720;BME280;5411;58.386;15.560;2023-02-18T13:35:24;98857.03;;;6.41;64.28
10720;BME280;5411;58.386;15.560;2023-02-18T13:38:05;98866.28;;;6.38;64.20
10720;BME280;5411;58.386;15.560;2023-02-18T13:40:41;98859.28;;;6.44;64.53
10720;BME280;5411;58.386;15.560;2023-02-18T13:43:20;98857.66;;;6.43;64.48
10720;BME280;5411;58.386;15.560;2023-02-18T13:46:08;98861.31;;;6.42;64.01
10720;BME280;5411;58.386;15.560;2023-02-18T13:48:42;98861.13;;;6.43;65.04
10720;BME280;5411;58.386;15.560;2023-02-18T13:51:13;98868.28;;;6.43;64.98
10720;BME280;5411;58.386;15.560;2023-02-18T13:53:43;98865.00;;;6.41;63.86